TimeCST,TemperatureF,Dew PointF,Humidity,Sea Level PressureIn,VisibilityMPH,Wind Direction,Wind SpeedMPH,Gust SpeedMPH,PrecipitationIn,Events,Conditions,WindDirDegrees,DateUTC
12:53 AM,41.0,37.9,89,30.02,10.0,West,9.2,-,N/A,,Clear,280,2012-11-19 06:53:00
1:53 AM,41.0,30.0,65,30.01,10.0,WNW,12.7,-,N/A,,Clear,290,2012-11-19 07:53:00
2:53 AM,41.0,27.0,57,30.01,10.0,WNW,9.2,-,N/A,,Clear,300,2012-11-19 08:53:00
3:53 AM,39.0,25.0,57,30.01,10.0,WNW,11.5,-,N/A,,Clear,300,2012-11-19 09:53:00
4:53 AM,35.1,24.1,64,30.03,10.0,West,8.1,-,N/A,,Clear,270,2012-11-19 10:53:00
5:53 AM,37.0,23.0,57,30.09,10.0,West,6.9,-,N/A,,Clear,280,2012-11-19 11:53:00
6:53 AM,35.1,23.0,61,30.11,10.0,WNW,5.8,-,N/A,,Clear,300,2012-11-19 12:53:00
7:53 AM,33.1,23.0,66,30.14,10.0,NW,3.5,-,N/A,,Clear,320,2012-11-19 13:53:00
8:53 AM,44.1,24.1,45,30.14,10.0,NNW,6.9,-,N/A,,Clear,340,2012-11-19 14:53:00
9:53 AM,55.0,27.0,34,30.12,10.0,North,8.1,-,N/A,,Clear,350,2012-11-19 15:53:00
10:53 AM,64.9,21.9,19,30.12,10.0,North,17.3,-,N/A,,Clear,360,2012-11-19 16:53:00
11:53 AM,68.0,19.9,16,30.11,10.0,North,15.0,-,N/A,,Clear,360,2012-11-19 17:53:00
12:53 PM,71.1,19.9,14,30.09,10.0,NNE,17.3,20.7,N/A,,Clear,20,2012-11-19 18:53:00
1:53 PM,70.0,19.0,14,30.09,10.0,North,10.4,-,N/A,,Clear,360,2012-11-19 19:53:00
2:53 PM,70.0,19.0,14,30.08,10.0,NNE,10.4,-,N/A,,Clear,30,2012-11-19 20:53:00
3:53 PM,69.1,19.9,15,30.10,10.0,NE,10.4,-,N/A,,Clear,50,2012-11-19 21:53:00
4:53 PM,66.9,19.9,17,30.13,10.0,ENE,8.1,-,N/A,,Clear,60,2012-11-19 22:53:00
5:53 PM,55.9,23.0,28,30.17,10.0,ENE,6.9,-,N/A,,Clear,70,2012-11-19 23:53:00
6:53 PM,51.1,23.0,33,30.21,10.0,ENE,6.9,-,N/A,,Clear,70,2012-11-20 00:53:00
7:53 PM,48.0,23.0,37,30.22,10.0,East,6.9,-,N/A,,Clear,80,2012-11-20 01:53:00
8:53 PM,46.9,24.1,41,30.21,10.0,ENE,5.8,-,N/A,,Clear,70,2012-11-20 02:53:00
9:53 PM,48.0,25.0,41,30.18,10.0,NNE,4.6,-,N/A,,Clear,30,2012-11-20 03:53:00
10:53 PM,42.1,21.9,45,30.16,10.0,Calm,Calm,-,N/A,,Clear,0,2012-11-20 04:53:00
11:53 PM,37.0,24.1,59,30.18,10.0,West,8.1,-,N/A,,Clear,280,2012-11-20 05:53:00